createdAt,value
2018-03-06T00:01:37.183Z,89.17
2018-03-06T00:06:40.547Z,85.27
2018-03-06T00:11:44.808Z,107.23
2018-03-06T00:16:47.448Z,86.50
2018-03-06T00:21:50.687Z,97.87
2018-03-06T00:26:53.233Z,95.20
2018-03-06T00:31:57.255Z,97.13
2018-03-06T00:37:00.630Z,95.40
2018-03-06T00:42:04.284Z,89.83
2018-03-06T00:47:08.006Z,104.57
2018-03-06T00:52:14.795Z,87.43
2018-03-06T00:57:18.194Z,105.53
2018-03-06T01:02:20.890Z,93.53
2018-03-06T01:07:25.128Z,76.80
2018-03-06T01:12:27.888Z,89.17
2018-03-06T01:17:30.872Z,84.43
2018-03-06T01:22:33.780Z,104.07
2018-03-06T01:27:38.128Z,84.83
2018-03-06T01:32:41.531Z,98.97
2018-03-06T01:37:46.451Z,73.53
2018-03-06T01:42:49.458Z,103.33
2018-03-06T01:47:55.478Z,83.33
2018-03-06T01:52:59.163Z,113.30
2018-03-06T01:58:02.042Z,100.43
2018-03-06T02:03:05.331Z,81.27
2018-03-06T02:08:08.779Z,70.97
2018-03-06T02:13:11.705Z,97.80
2018-03-06T02:18:14.351Z,96.70
2018-03-06T02:23:16.967Z,107.20
2018-03-06T02:28:20.466Z,89.87
2018-03-06T02:33:24.565Z,102.93
2018-03-06T02:38:27.870Z,93.83
2018-03-06T02:43:30.531Z,88.47
2018-03-06T02:48:34.768Z,94.37
2018-03-06T02:53:39.012Z,107.13
2018-03-06T02:58:41.695Z,94.23
2018-03-06T03:03:45.903Z,98.13
2018-03-06T03:08:49.312Z,89.10
2018-03-06T03:13:52.797Z,94.43
2018-03-06T03:18:56.097Z,82.83
2018-03-06T03:23:58.662Z,94.90
2018-03-06T03:29:01.201Z,100.50
2018-03-06T03:34:03.779Z,104.33
2018-03-06T03:39:06.358Z,77.37
2018-03-06T03:44:09.237Z,93.80
2018-03-06T03:49:12.082Z,105.43
2018-03-06T03:54:14.870Z,90.70
2018-03-06T03:59:17.770Z,104.87
2018-03-06T04:04:20.395Z,93.07
2018-03-06T04:09:23.998Z,84.60
2018-03-06T04:14:26.849Z,90.73
2018-03-06T04:19:30.305Z,95.50
2018-03-06T04:24:33.015Z,94.83
2018-03-06T04:29:35.840Z,98.03
2018-03-06T04:34:38.524Z,83.10
2018-03-06T04:39:41.422Z,105.70
2018-03-06T04:44:47.367Z,105.57
2018-03-06T04:49:50.156Z,95.33
2018-03-06T04:54:53.585Z,84.07
2018-03-06T04:59:56.902Z,91.67
2018-03-06T05:05:00.162Z,82.60
2018-03-06T05:10:03.466Z,111.67
2018-03-06T05:15:06.938Z,121.93
2018-03-06T05:20:10.191Z,108.17
2018-03-06T05:25:14.265Z,104.00
2018-03-06T05:30:17.570Z,99.33
2018-03-06T05:35:20.443Z,91.90
2018-03-06T05:40:24.129Z,90.47
2018-03-06T05:45:28.358Z,106.40
2018-03-06T05:50:30.946Z,105.87
2018-03-06T05:55:33.558Z,106.70
2018-03-06T06:00:39.487Z,84.43
2018-03-06T06:05:42.067Z,99.37
2018-03-06T06:10:44.716Z,80.60
2018-03-06T06:15:47.635Z,104.60
2018-03-06T06:20:50.469Z,88.93
2018-03-06T06:25:53.770Z,88.83
2018-03-06T06:30:57.023Z,97.30
2018-03-06T06:35:59.865Z,100.20
2018-03-06T06:41:03.163Z,106.07
2018-03-06T06:46:07.346Z,80.50
2018-03-06T06:51:10.219Z,98.80
2018-03-06T06:56:15.115Z,97.50
2018-03-06T07:01:17.997Z,107.80
2018-03-06T07:06:20.610Z,96.83
2018-03-06T07:11:23.268Z,84.43
2018-03-06T07:16:26.879Z,92.43
2018-03-06T07:21:30.132Z,91.40
2018-03-06T07:26:33.004Z,86.07
2018-03-06T07:31:36.308Z,76.50
2018-03-06T07:36:39.723Z,109.90
2018-03-06T07:41:42.348Z,110.30
2018-03-06T07:46:45.820Z,87.17
2018-03-06T07:51:49.243Z,74.40
2018-03-06T07:56:51.806Z,95.37
2018-03-06T08:01:54.681Z,80.80
2018-03-06T08:06:57.281Z,73.73
2018-03-06T08:12:03.112Z,88.80
2018-03-06T08:17:06.301Z,88.20
2018-03-06T08:22:09.952Z,78.33
2018-03-06T08:27:13.347Z,93.90
2018-03-06T08:32:18.243Z,87.23
2018-03-06T08:37:21.476Z,92.20
2018-03-06T08:42:24.063Z,84.13
2018-03-06T08:47:26.914Z,86.33
2018-03-06T08:52:29.499Z,82.00
2018-03-06T08:57:32.122Z,88.90
2018-03-06T09:02:35.011Z,83.97
2018-03-06T09:07:38.687Z,90.80
2018-03-06T09:12:41.287Z,90.40
2018-03-06T09:17:44.205Z,82.90
2018-03-06T09:22:47.099Z,91.43
2018-03-06T09:27:49.994Z,84.90
2018-03-06T09:32:52.623Z,91.80
2018-03-06T09:37:55.903Z,77.10
2018-03-06T09:42:58.499Z,79.13
2018-03-06T09:48:01.077Z,77.77
2018-03-06T09:53:03.881Z,97.70
2018-03-06T09:58:07.496Z,92.20
2018-03-06T10:03:10.335Z,100.80
2018-03-06T10:08:13.227Z,73.00
2018-03-06T10:13:17.219Z,73.20
2018-03-06T10:18:20.525Z,91.97
2018-03-06T10:23:23.713Z,89.50
2018-03-06T10:28:27.276Z,92.90
2018-03-06T10:33:32.310Z,81.93
2018-03-06T10:38:35.172Z,74.73
2018-03-06T10:43:38.527Z,75.60
2018-03-06T10:48:41.322Z,86.43
2018-03-06T10:53:44.130Z,73.93
2018-03-06T10:58:47.483Z,86.13
2018-03-06T11:03:51.566Z,77.93
2018-03-06T11:08:54.162Z,81.07
2018-03-06T11:13:56.771Z,76.70
2018-03-06T11:18:59.371Z,74.20
2018-03-06T11:24:02.763Z,92.30
2018-03-06T11:29:05.563Z,71.77
2018-03-06T11:34:08.140Z,71.00
2018-03-06T11:39:10.762Z,73.00
2018-03-06T11:44:13.414Z,75.37
2018-03-06T11:49:16.267Z,76.97
2018-03-06T11:54:19.512Z,67.60
2018-03-06T11:59:23.106Z,72.27
2018-03-06T12:04:26.463Z,65.50
2018-03-06T12:09:29.836Z,69.17
2018-03-06T12:14:32.717Z,69.00
2018-03-06T12:19:35.980Z,71.47
2018-03-06T12:24:38.570Z,67.57
2018-03-06T12:29:41.429Z,59.30
2018-03-06T12:34:44.243Z,57.23
2018-03-06T12:39:46.824Z,79.53
2018-03-06T12:44:50.073Z,56.30
2018-03-06T12:49:53.411Z,54.93
2018-03-06T12:54:56.245Z,61.07
2018-03-06T12:59:59.056Z,63.97
2018-03-06T13:05:01.911Z,82.20
2018-03-06T13:10:04.488Z,77.37
2018-03-06T13:15:07.337Z,60.37
2018-03-06T13:20:10.770Z,70.23
2018-03-06T13:25:13.366Z,73.77
2018-03-06T13:30:17.575Z,64.80
2018-03-06T13:35:22.215Z,56.97
2018-03-06T13:40:26.263Z,63.60
2018-03-06T13:45:29.625Z,64.97
2018-03-06T13:50:32.966Z,53.57
2018-03-06T13:55:36.227Z,62.50
2018-03-06T14:00:39.118Z,83.80
2018-03-06T14:05:41.950Z,67.37
2018-03-06T14:10:45.177Z,79.63
2018-03-06T14:15:47.754Z,70.50
2018-03-06T14:20:51.059Z,85.87
2018-03-06T14:25:54.134Z,90.03
2018-03-06T14:30:57.114Z,74.10
2018-03-06T14:36:00.218Z,69.37
2018-03-06T14:41:04.798Z,77.67
2018-03-06T14:46:07.799Z,76.90
2018-03-06T14:51:10.496Z,83.60
2018-03-06T14:56:13.915Z,78.70
2018-03-06T15:01:17.353Z,103.20
2018-03-06T15:06:20.736Z,75.00
2018-03-06T15:11:23.341Z,71.60
2018-03-06T15:16:26.051Z,81.23
2018-03-06T15:21:29.482Z,80.90
2018-03-06T15:26:32.424Z,81.77
2018-03-06T15:31:35.749Z,92.73
2018-03-06T15:36:38.398Z,87.17
2018-03-06T15:41:44.314Z,88.57
2018-03-06T15:46:47.620Z,66.73
2018-03-06T15:51:51.781Z,71.87
2018-03-06T15:56:54.627Z,79.07
2018-03-06T16:01:57.172Z,90.07
2018-03-06T16:06:59.764Z,94.03
2018-03-06T16:12:02.625Z,77.60
2018-03-06T16:17:05.246Z,80.20
2018-03-06T16:22:08.184Z,81.53
2018-03-06T16:27:11.496Z,85.00
2018-03-06T16:32:14.145Z,96.50
2018-03-06T16:37:16.881Z,90.50
2018-03-06T16:42:19.556Z,104.73
2018-03-06T16:47:22.847Z,90.60
2018-03-06T16:52:26.248Z,99.47
2018-03-06T16:57:29.022Z,98.67
2018-03-06T17:02:32.443Z,99.37
2018-03-06T17:07:36.471Z,99.40
2018-03-06T17:12:40.181Z,82.70
2018-03-06T17:17:42.766Z,89.57
2018-03-06T17:22:45.662Z,104.60
2018-03-06T17:27:48.251Z,99.90
2018-03-06T17:32:50.858Z,99.67
2018-03-06T17:37:53.514Z,94.37
2018-03-06T17:42:56.054Z,88.93
2018-03-06T17:47:58.667Z,84.47
2018-03-06T17:53:01.191Z,106.23
2018-03-06T17:58:03.915Z,92.70
2018-03-06T18:03:07.326Z,96.90
2018-03-06T18:08:11.480Z,106.80
2018-03-06T18:13:16.122Z,115.60
2018-03-06T18:18:19.467Z,90.97
2018-03-06T18:23:22.267Z,100.30
2018-03-06T18:28:25.066Z,119.50
2018-03-06T18:33:28.645Z,91.73
2018-03-06T18:38:32.807Z,105.37
2018-03-06T18:43:36.794Z,110.80
2018-03-06T18:48:39.623Z,97.47
2018-03-06T18:53:42.227Z,113.97
2018-03-06T18:58:45.619Z,98.67
2018-03-06T19:04:00.323Z,90.67
2018-03-06T19:09:03.194Z,103.43
2018-03-06T19:14:07.338Z,98.30
2018-03-06T19:19:10.142Z,108.30
2018-03-06T19:24:13.000Z,106.47
2018-03-06T19:29:16.613Z,111.60
2018-03-06T19:34:20.314Z,97.83
2018-03-06T19:39:24.247Z,99.93
2018-03-06T19:44:26.877Z,105.27
2018-03-06T19:49:29.700Z,91.27
2018-03-06T19:54:33.048Z,119.17
2018-03-06T19:59:36.336Z,104.37
2018-03-06T20:04:39.910Z,111.70
2018-03-06T20:09:43.086Z,118.60
2018-03-06T21:32:21.230Z,182.40
2018-03-06T21:37:24.037Z,131.37
2018-03-06T21:42:26.900Z,106.90
2018-03-06T21:47:29.721Z,118.50
2018-03-06T21:52:32.380Z,117.70
2018-03-06T21:57:35.058Z,153.63
2018-03-06T22:02:38.631Z,112.13
2018-03-06T22:07:41.508Z,148.67
2018-03-06T22:12:44.457Z,136.07
2018-03-06T22:17:48.066Z,116.53
2018-03-06T22:22:50.934Z,130.73
2018-03-06T22:27:54.292Z,131.00
2018-03-06T22:32:56.941Z,117.27
2018-03-06T22:37:59.617Z,119.33
2018-03-06T22:43:02.951Z,142.37
2018-03-06T22:48:05.606Z,156.97
2018-03-06T22:53:09.075Z,138.87
2018-03-06T22:58:12.629Z,147.00
2018-03-06T23:03:15.294Z,132.57
2018-03-06T23:08:19.626Z,142.50
2018-03-06T23:13:23.400Z,156.57
2018-03-06T23:18:26.094Z,159.33
2018-03-06T23:23:29.006Z,131.57
2018-03-06T23:28:31.889Z,133.63
2018-03-06T23:33:35.276Z,138.97
2018-03-06T23:38:38.927Z,107.97
2018-03-06T23:43:42.580Z,112.43
2018-03-06T23:48:46.893Z,124.90
2018-03-06T23:53:49.540Z,138.07
2018-03-06T23:58:52.211Z,114.97
